Wapakoneta, Ohio
Current Conditions -  °F | °C
As of 10:32 PM on Monday 22 Dec 2014 (Local Time) from KAXV Reporting Station
Overcast Overcast  
Wind Chill:   Ceiling: 12000
Heat Index:   Visibility: 10mi
Dew Point:   Wind: 13mph
Humidity: 76%   Direction: 120°ESE
Pressure: 29.74"   Gusts: NA
Location:  40.57°N, 84.19°W
Report Text: KAXV 230332Z AUTO 12011KT 10SM OVC120 07/03 A2974 RMK AO2
Loading
Personal Weather Stations






























Interactive Weather Map New forecast layout! Learn more

10-Day Weather Forecast

Advertisements
Track Severe Weather on mobile